Time;durP1;ratioP1;P1;durP2;ratioP2;P2;SDS_P1;SDS_P2;PMS_P1;PMS_P2;Temp;Humidity;BMP_temperature;BMP_pressure;BME280_temperature;BME280_humidity;BME280_pressure;Samples;Min_cycle;Max_cycle;Signal;HPM_P1;HPM_P2
2023/10/15 00:00:12;;;;;;;2.42;1.15;;;9.90;99.90;;;;;;4974225;28;20023;-72
2023/10/15 00:02:37;;;;;;;3.45;1.02;;;9.90;99.90;;;;;;4974683;28;20027;-72
2023/10/15 00:05:05;;;;;;;2.53;0.93;;;9.90;99.90;;;;;;4974281;28;20023;-72
2023/10/15 00:07:31;;;;;;;3.05;0.90;;;9.80;99.90;;;;;;4974235;28;20121;-72
2023/10/15 00:09:56;;;;;;;2.95;1.00;;;9.80;99.90;;;;;;4974263;28;20059;-72
2023/10/15 00:12:22;;;;;;;2.50;0.70;;;9.70;99.90;;;;;;4974229;28;20046;-72
2023/10/15 00:14:48;;;;;;;2.65;1.00;;;9.70;99.90;;;;;;4974468;28;20019;-72
2023/10/15 00:17:14;;;;;;;3.92;0.90;;;9.70;99.90;;;;;;4974172;28;20034;-72
2023/10/15 00:19:39;;;;;;;4.55;0.93;;;9.70;99.90;;;;;;4974480;28;20027;-72
2023/10/15 00:22:07;;;;;;;2.63;0.90;;;9.80;99.90;;;;;;4974394;28;20035;-72
2023/10/15 00:24:33;;;;;;;2.63;0.98;;;9.80;99.90;;;;;;4974276;28;20041;-72
2023/10/15 00:26:59;;;;;;;3.33;1.15;;;9.80;99.90;;;;;;4956770;28;20479;-72
2023/10/15 00:29:25;;;;;;;2.30;0.82;;;9.80;99.90;;;;;;4974077;28;20039;-72
2023/10/15 00:31:51;;;;;;;2.58;0.90;;;9.80;99.90;;;;;;4975883;28;20090;-72
2023/10/15 00:34:17;;;;;;;2.78;0.98;;;9.80;99.90;;;;;;4977618;28;20063;-72
2023/10/15 00:36:43;;;;;;;2.15;0.95;;;9.80;99.90;;;;;;4977952;28;20081;-72
2023/10/15 00:39:20;;;;;;;3.42;0.90;;;9.80;99.90;;;;;;4977799;28;20026;-72
2023/10/15 00:41:49;;;;;;;3.05;1.05;;;9.80;99.90;;;;;;4960099;28;20026;-72
2023/10/15 00:44:16;;;;;;;3.83;1.23;;;9.80;99.90;;;;;;4977750;28;20023;-72
2023/10/15 00:46:45;;;;;;;2.95;0.95;;;9.80;99.90;;;;;;4977828;28;20101;-72
2023/10/15 00:49:14;;;;;;;2.15;0.80;;;9.80;99.90;;;;;;4960073;28;20035;-72
2023/10/15 00:51:43;;;;;;;2.42;0.90;;;9.70;99.90;;;;;;4977442;28;20455;-72
2023/10/15 00:54:15;;;;;;;3.22;1.10;;;9.80;99.90;;;;;;4977705;28;20035;-73
2023/10/15 00:56:46;;;;;;;2.67;0.90;;;9.80;99.90;;;;;;4959903;28;20493;-72
2023/10/15 00:59:18;;;;;;;3.17;1.23;;;9.80;99.90;;;;;;4977308;28;20039;-72
2023/10/15 01:02:03;;;;;;;2.67;1.08;;;9.80;99.90;;;;;;4977095;28;20031;-72
2023/10/15 01:04:34;;;;;;;3.33;1.00;;;9.70;99.90;;;;;;4977467;28;20046;-72
2023/10/15 01:07:13;;;;;;;3.72;1.00;;;9.60;99.90;;;;;;4992758;28;20451;-72
2023/10/15 01:09:40;;;;;;;2.88;1.08;;;9.60;99.90;;;;;;4996210;28;20029;-72
2023/10/15 01:12:39;;;;;;;4.18;1.42;;;9.60;99.90;;;;;;4995378;28;20053;-72
2023/10/15 01:14:58;;;;;;;3.67;1.20;;;9.60;99.90;;;;;;4976027;28;20483;-73
2023/10/15 01:17:36;;;;;;;4.03;1.67;;;9.50;99.90;;;;;;4977196;28;20062;-72
2023/10/15 01:20:07;;;;;;;2.53;1.08;;;9.40;99.90;;;;;;4980844;28;20058;-73
2023/10/15 01:22:33;;;;;;;3.35;1.00;;;9.30;99.90;;;;;;4996169;28;20029;-71
2023/10/15 01:25:24;;;;;;;3.97;1.13;;;9.30;99.90;;;;;;4996153;28;20038;-73
2023/10/15 01:27:54;;;;;;;;;;;9.40;99.90;;;;;;4996993;28;20166;-73
2023/10/15 01:30:24;;;;;;;5.15;0.95;;;9.30;99.90;;;;;;4996648;28;19913;-72
2023/10/15 01:32:50;;;;;;;4.60;1.23;;;9.30;99.90;;;;;;4996051;28;20114;-72
2023/10/15 01:35:19;;;;;;;4.55;1.20;;;9.20;99.90;;;;;;4996307;28;20505;-73
2023/10/15 01:37:57;;;;;;;5.72;1.27;;;9.20;99.90;;;;;;4995756;28;20073;-71
2023/10/15 01:40:40;;;;;;;4.18;1.50;;;9.20;99.90;;;;;;4963751;28;20037;-72
2023/10/15 01:43:12;;;;;;;3.22;1.02;;;9.20;99.90;;;;;;4994444;28;20063;-72
2023/10/15 01:45:40;;;;;;;5.60;1.00;;;9.20;99.90;;;;;;4995260;28;20035;-72
2023/10/15 01:48:24;;;;;;;3.10;1.10;;;9.20;99.90;;;;;;4995278;28;20034;-72
2023/10/15 01:50:51;;;;;;;2.17;1.10;;;9.20;99.90;;;;;;4995584;28;20029;-72
2023/10/15 01:53:23;;;;;;;3.85;1.15;;;9.20;99.90;;;;;;4996209;28;20026;-73
2023/10/15 01:55:59;;;;;;;2.63;1.08;;;9.20;99.90;;;;;;4979132;28;20062;-72
2023/10/15 01:58:30;;;;;;;4.40;1.17;;;9.10;99.90;;;;;;4995643;28;20406;-73
2023/10/15 02:01:05;;;;;;;1.85;0.75;;;9.10;99.90;;;;;;4995539;28;20027;-72
2023/10/15 02:03:31;;;;;;;1.90;1.02;;;9.10;99.90;;;;;;4978219;28;20031;-72
2023/10/15 02:06:05;;;;;;;2.63;1.00;;;9.10;99.90;;;;;;4995787;28;20018;-72
2023/10/15 02:08:30;;;;;;;3.38;1.40;;;9.10;99.90;;;;;;4995661;28;20030;-72
2023/10/15 02:10:56;;;;;;;3.25;1.00;;;9.10;99.90;;;;;;4995481;28;20049;-73
2023/10/15 02:13:22;;;;;;;4.30;1.17;;;9.10;99.90;;;;;;4995882;28;20109;-73
2023/10/15 02:15:58;;;;;;;3.85;1.20;;;9.10;99.90;;;;;;4977391;28;20114;-72
2023/10/15 02:18:23;;;;;;;2.45;1.17;;;9.10;99.90;;;;;;4994884;28;20089;-72
2023/10/15 02:23:19;;;;;;;2.75;1.33;;;9.00;99.90;;;;;;4976126;28;20084;-72
2023/10/15 02:26:00;;;;;;;3.42;1.50;;;8.90;99.90;;;;;;4975680;28;20030;-72
2023/10/15 02:28:26;;;;;;;;;;;9.00;99.90;;;;;;4976608;28;20026;-72
2023/10/15 02:31:00;;;;;;;2.35;1.08;;;8.90;99.90;;;;;;4976230;28;20005;-73
2023/10/15 02:33:27;;;;;;;3.85;1.23;;;8.90;99.90;;;;;;4975865;28;20035;-72
2023/10/15 02:35:59;;;;;;;2.78;1.10;;;8.90;99.90;;;;;;4976503;28;20372;-73
2023/10/15 02:38:26;;;;;;;3.15;1.50;;;8.90;99.90;;;;;;4975592;28;20498;-73
2023/10/15 02:41:06;;;;;;;3.72;1.10;;;8.90;99.90;;;;;;4975564;28;20065;-73
2023/10/15 02:43:36;;;;;;;4.53;1.20;;;8.90;99.90;;;;;;4975794;28;20019;-73
2023/10/15 02:48:47;;;;;;;3.22;1.50;;;8.90;99.90;;;;;;4961243;28;20122;-73
2023/10/15 02:51:17;;;;;;;4.93;1.40;;;8.90;99.90;;;;;;4975533;28;20074;-73
2023/10/15 02:53:50;;;;;;;3.83;1.20;;;8.90;99.90;;;;;;4975097;28;20117;-73
2023/10/15 02:56:17;;;;;;;2.83;1.10;;;8.90;99.90;;;;;;4975062;28;20452;-72
2023/10/15 02:58:44;;;;;;;2.83;1.40;;;8.90;99.90;;;;;;4975430;28;20054;-73
2023/10/15 03:01:20;;;;;;;2.92;1.10;;;8.90;99.90;;;;;;4975000;28;20030;-72
2023/10/15 03:03:49;;;;;;;5.63;1.42;;;8.90;99.90;;;;;;4975656;28;20023;-73
2023/10/15 03:06:34;;;;;;;4.88;1.60;;;8.80;99.90;;;;;;4975060;28;20061;-73
2023/10/15 03:09:00;;;;;;;2.00;0.90;;;8.80;99.90;;;;;;4975104;28;20023;-73
2023/10/15 03:11:32;;;;;;;2.30;1.20;;;8.90;99.90;;;;;;4957703;28;20502;-73
2023/10/15 03:14:00;;;;;;;4.35;1.20;;;8.90;99.90;;;;;;4957714;28;20081;-72
2023/10/15 03:16:30;;;;;;;5.57;1.33;;;8.90;99.90;;;;;;4957573;28;20031;-72
2023/10/15 03:18:57;;;;;;;4.05;1.27;;;8.80;99.90;;;;;;4975023;28;20027;-73
2023/10/15 03:21:26;;;;;;;2.88;1.08;;;8.80;99.90;;;;;;4974899;28;20034;-73
2023/10/15 03:23:56;;;;;;;3.25;1.30;;;8.80;99.90;;;;;;4958071;28;20027;-73
2023/10/15 03:26:23;;;;;;;5.05;1.30;;;8.80;99.90;;;;;;4974734;28;20479;-73
2023/10/15 03:28:52;;;;;;;5.43;1.80;;;8.80;99.90;;;;;;4975065;28;20027;-73
2023/10/15 03:31:23;;;;;;;3.92;1.60;;;8.80;99.90;;;;;;4974670;28;20042;-73
2023/10/15 03:36:26;;;;;;;3.88;1.50;;;8.80;99.90;;;;;;4974993;28;20031;-72
2023/10/15 03:38:53;;;;;;;4.32;1.65;;;8.80;99.90;;;;;;4974715;28;20034;-73
2023/10/15 03:41:22;;;;;;;2.58;1.20;;;8.90;99.90;;;;;;4974581;28;20034;-73
2023/10/15 03:43:51;;;;;;;3.08;1.10;;;8.80;99.90;;;;;;4974599;28;20031;-73
2023/10/15 03:46:19;;;;;;;4.78;1.48;;;8.90;99.90;;;;;;4974636;28;20050;-73
2023/10/15 03:48:50;;;;;;;3.28;1.30;;;8.90;99.90;;;;;;4974560;28;20037;-73
2023/10/15 03:51:20;;;;;;;2.97;1.20;;;8.90;99.90;;;;;;4974582;28;20030;-72
2023/10/15 03:53:49;;;;;;;3.38;1.30;;;8.90;99.90;;;;;;4975173;28;20118;-73
2023/10/15 03:56:49;;;;;;;2.38;1.30;;;9.00;99.90;;;;;;4974549;28;20095;-72
2023/10/15 03:59:08;;;;;;;2.88;1.00;;;8.90;99.90;;;;;;4972608;28;20377;-73
2023/10/15 04:01:37;;;;;;;2.88;1.20;;;8.90;99.90;;;;;;4974424;28;20098;-73
2023/10/15 04:04:03;;;;;;;3.22;1.23;;;8.90;99.90;;;;;;4974400;28;20045;-73
2023/10/15 04:06:29;;;;;;;5.13;1.38;;;8.90;99.90;;;;;;4975740;28;20472;-72
2023/10/15 04:11:30;;;;;;;3.58;1.30;;;8.80;99.90;;;;;;4978347;28;20031;-72
2023/10/15 04:14:08;;;;;;;2.40;1.27;;;8.80;99.90;;;;;;4978182;28;20027;-72
2023/10/15 04:16:34;;;;;;;3.25;1.02;;;8.80;99.90;;;;;;4978397;28;20031;-72
2023/10/15 04:19:00;;;;;;;4.10;1.10;;;8.90;99.90;;;;;;4978242;28;20105;-72
2023/10/15 04:21:26;;;;;;;2.40;1.20;;;8.90;99.90;;;;;;4977965;28;20019;-73
2023/10/15 04:23:56;;;;;;;5.90;2.20;;;8.90;99.90;;;;;;4977926;28;20041;-72
2023/10/15 04:26:26;;;;;;;5.68;2.55;;;8.90;99.90;;;;;;4977649;28;20057;-72
2023/10/15 04:28:53;;;;;;;4.77;1.87;;;8.90;99.90;;;;;;4977869;28;20023;-72
2023/10/15 04:31:29;;;;;;;6.90;1.55;;;8.80;99.90;;;;;;4978129;28;20023;-72
2023/10/15 04:33:55;;;;;;;4.55;1.98;;;8.80;99.90;;;;;;4977742;28;20105;-72
2023/10/15 04:36:22;;;;;;;3.17;1.70;;;8.70;99.90;;;;;;4977696;28;20416;-72
2023/10/15 04:38:57;;;;;;;5.20;2.20;;;8.60;99.90;;;;;;4961027;28;20392;-72
2023/10/15 04:41:22;;;;;;;5.07;2.00;;;8.60;99.90;;;;;;4978048;28;20058;-72
2023/10/15 04:43:48;;;;;;;3.92;1.95;;;8.60;99.90;;;;;;4977732;28;20440;-72
2023/10/15 04:46:25;;;;;;;4.25;1.35;;;8.60;99.90;;;;;;4977749;28;20031;-72
2023/10/15 04:48:51;;;;;;;4.10;1.55;;;8.60;99.90;;;;;;4977607;28;20027;-72
2023/10/15 04:51:18;;;;;;;4.35;2.15;;;8.60;99.90;;;;;;4977476;28;20027;-72
2023/10/15 04:53:50;;;;;;;4.88;1.92;;;8.70;99.90;;;;;;4977472;28;20078;-72
2023/10/15 04:56:16;;;;;;;4.45;2.35;;;8.70;99.90;;;;;;4978095;28;20070;-72
2023/10/15 04:58:42;;;;;;;4.63;2.10;;;8.70;99.90;;;;;;4977838;28;20518;-72
2023/10/15 05:01:08;;;;;;;3.63;1.48;;;8.80;99.90;;;;;;4977822;28;20023;-72
2023/10/15 05:03:36;;;;;;;3.08;1.60;;;8.80;99.90;;;;;;4977733;28;20022;-72
2023/10/15 05:06:10;;;;;;;2.67;1.23;;;8.80;99.90;;;;;;4977740;28;20030;-72
2023/10/15 05:08:36;;;;;;;4.68;1.65;;;8.80;99.90;;;;;;4977846;28;20027;-72
2023/10/15 05:11:03;;;;;;;3.60;1.40;;;8.80;99.90;;;;;;4977758;28;20027;-72
2023/10/15 05:13:31;;;;;;;7.07;2.25;;;8.70;99.90;;;;;;4977793;28;20053;-73
2023/10/15 05:15:57;;;;;;;6.47;1.88;;;8.70;99.90;;;;;;4977429;28;20030;-72
2023/10/15 05:18:23;;;;;;;11.88;6.88;;;8.70;99.90;;;;;;4960000;28;20483;-73
2023/10/15 05:20:50;;;;;;;15.30;8.25;;;8.70;99.90;;;;;;4976954;28;20403;-73
2023/10/15 05:23:19;;;;;;;4.93;3.65;;;8.70;99.90;;;;;;4977325;28;20162;-73
2023/10/15 05:25:45;;;;;;;4.93;2.38;;;8.60;99.90;;;;;;4977099;28;20035;-72
2023/10/15 05:28:14;;;;;;;4.97;1.90;;;8.60;99.90;;;;;;4977232;28;20038;-73
2023/10/15 05:30:43;;;;;;;8.75;2.08;;;8.50;99.90;;;;;;4987939;28;20034;-72
2023/10/15 05:33:09;;;;;;;3.20;1.40;;;8.40;99.90;;;;;;4996151;28;20093;-72
2023/10/15 05:35:34;;;;;;;5.00;1.50;;;8.40;99.90;;;;;;4995701;28;20027;-72
2023/10/15 05:38:00;;;;;;;3.88;1.67;;;8.40;99.90;;;;;;4996095;28;20483;-72
2023/10/15 05:40:26;;;;;;;5.13;1.77;;;8.40;99.90;;;;;;4978684;28;20031;-73
2023/10/15 05:42:53;;;;;;;4.55;1.50;;;8.40;99.90;;;;;;4978753;28;20018;-73
2023/10/15 05:45:18;;;;;;;13.50;5.53;;;8.50;99.90;;;;;;4995973;28;20077;-72
2023/10/15 05:47:44;;;;;;;32.88;13.57;;;8.50;99.90;;;;;;4995957;28;20387;-73
2023/10/15 05:50:12;;;;;;;37.20;15.90;;;8.50;99.90;;;;;;4978478;28;20026;-73
2023/10/15 05:52:39;;;;;;;26.45;11.85;;;8.50;99.90;;;;;;4995937;28;20518;-73
2023/10/15 05:55:06;;;;;;;9.07;4.22;;;8.50;99.90;;;;;;4995180;28;20030;-72
2023/10/15 05:57:33;;;;;;;6.03;2.45;;;8.50;99.90;;;;;;4995115;28;20399;-72
2023/10/15 06:00:17;;;;;;;5.60;1.40;;;8.50;99.90;;;;;;4995028;28;20053;-72
2023/10/15 06:02:43;;;;;;;5.32;1.88;;;8.50;99.90;;;;;;4992734;28;20015;-72
2023/10/15 06:05:11;;;;;;;3.58;1.33;;;8.50;99.90;;;;;;4994923;28;20506;-72
2023/10/15 06:07:37;;;;;;;5.30;1.63;;;8.40;99.90;;;;;;4994979;28;20062;-72
2023/10/15 06:10:03;;;;;;;3.95;1.73;;;8.40;99.90;;;;;;4977606;28;20076;-72
2023/10/15 06:12:29;;;;;;;7.32;3.50;;;8.40;99.90;;;;;;4993546;28;20101;-72
2023/10/15 06:14:54;;;;;;;8.25;3.80;;;8.40;99.90;;;;;;4994477;28;20025;-72
2023/10/15 06:17:20;;;;;;;4.85;1.58;;;8.40;99.90;;;;;;4994312;28;20026;-72
2023/10/15 06:19:46;;;;;;;6.93;2.05;;;8.40;99.90;;;;;;4977916;28;20109;-72
2023/10/15 06:22:12;;;;;;;5.68;1.95;;;8.40;99.90;;;;;;4994428;28;20086;-72
2023/10/15 06:24:38;;;;;;;4.30;1.60;;;8.40;99.90;;;;;;4995564;28;20448;-73
2023/10/15 06:27:04;;;;;;;4.32;1.85;;;8.40;99.90;;;;;;4994868;28;20030;-72
2023/10/15 06:29:29;;;;;;;4.72;1.58;;;8.40;99.90;;;;;;4978267;28;20045;-72
2023/10/15 06:31:55;;;;;;;7.07;1.90;;;8.40;99.90;;;;;;4995064;28;20026;-72
2023/10/15 06:34:22;;;;;;;3.67;1.83;;;8.40;99.90;;;;;;4995057;28;20042;-72
2023/10/15 06:36:47;;;;;;;7.05;1.58;;;8.40;99.90;;;;;;4994656;28;20361;-72
2023/10/15 06:39:13;;;;;;;3.72;1.45;;;8.50;99.90;;;;;;4994308;28;20038;-72
2023/10/15 06:41:39;;;;;;;5.20;2.60;;;8.50;99.90;;;;;;4994638;28;20034;-72
2023/10/15 06:44:04;;;;;;;6.97;2.78;;;8.50;99.90;;;;;;4993853;28;20081;-73
2023/10/15 06:46:31;;;;;;;4.15;2.05;;;8.50;99.90;;;;;;4977041;28;20027;-72
2023/10/15 06:48:57;;;;;;;5.05;2.15;;;8.50;99.90;;;;;;4993649;28;20390;-72
2023/10/15 06:51:22;;;;;;;3.53;1.27;;;8.50;99.90;;;;;;4994600;28;20022;-72
2023/10/15 06:53:48;;;;;;;4.03;1.80;;;8.40;99.90;;;;;;4993777;28;20034;-73
2023/10/15 06:56:17;;;;;;;4.25;1.77;;;8.40;99.90;;;;;;4994946;28;20030;-72
2023/10/15 06:58:43;;;;;;;3.08;1.60;;;8.40;99.90;;;;;;4983522;28;20027;-72
2023/10/15 07:01:10;;;;;;;5.72;1.55;;;8.30;99.90;;;;;;4995419;28;20038;-72
2023/10/15 07:03:36;;;;;;;2.80;1.60;;;8.40;99.90;;;;;;4979587;28;20019;-72
2023/10/15 07:06:01;;;;;;;3.47;1.67;;;8.40;99.90;;;;;;4994249;28;20372;-72
2023/10/15 07:08:27;;;;;;;4.38;1.83;;;8.40;99.90;;;;;;4976840;28;20152;-72
2023/10/15 07:10:53;;;;;;;6.97;3.05;;;8.50;99.90;;;;;;4994258;28;20376;-72
2023/10/15 07:13:19;;;;;;;10.73;4.97;;;8.50;99.90;;;;;;4976125;28;20033;-73
2023/10/15 07:15:45;;;;;;;13.15;5.55;;;8.60;99.90;;;;;;4976368;28;20475;-72
2023/10/15 07:18:12;;;;;;;10.40;3.63;;;8.60;99.90;;;;;;4992416;28;20034;-72
2023/10/15 07:20:39;;;;;;;5.63;2.78;;;8.60;99.90;;;;;;4993479;28;20018;-72
2023/10/15 07:23:04;;;;;;;6.22;2.50;;;8.70;99.90;;;;;;4994014;28;20026;-72
2023/10/15 07:25:32;;;;;;;6.20;2.38;;;8.70;99.90;;;;;;4994639;28;20100;-72
2023/10/15 07:27:59;;;;;;;4.35;1.80;;;8.80;99.90;;;;;;4976688;28;20057;-72
2023/10/15 07:30:25;;;;;;;4.43;1.52;;;8.80;99.90;;;;;;4994804;28;20065;-72
2023/10/15 07:33:01;;;;;;;4.78;2.17;;;8.80;99.90;;;;;;4993885;28;20046;-71
2023/10/15 07:35:28;;;;;;;7.72;3.35;;;8.80;99.90;;;;;;4994092;28;20085;-72
2023/10/15 07:37:54;;;;;;;7.07;3.67;;;8.80;99.90;;;;;;4994172;28;20037;-72
2023/10/15 07:40:22;;;;;;;9.70;3.67;;;8.80;99.90;;;;;;4995567;28;20035;-72
2023/10/15 07:42:52;;;;;;;7.80;2.80;;;8.80;99.90;;;;;;4993787;28;20431;-73
2023/10/15 07:45:20;;;;;;;5.05;2.80;;;8.90;99.90;;;;;;4993078;28;20026;-73
2023/10/15 07:47:46;;;;;;;5.13;2.72;;;8.90;99.90;;;;;;4993651;28;20553;-72
2023/10/15 07:50:18;;;;;;;5.00;2.20;;;8.90;99.90;;;;;;4993572;28;20042;-72
2023/10/15 07:52:45;;;;;;;5.07;2.22;;;9.00;99.90;;;;;;4994095;28;20379;-72
2023/10/15 07:55:11;;;;;;;3.55;1.77;;;9.00;99.90;;;;;;4993323;28;20026;-72
2023/10/15 07:57:37;;;;;;;5.28;1.95;;;9.00;99.90;;;;;;4994255;28;20034;-72
2023/10/15 08:00:09;;;;;;;4.68;1.98;;;9.00;99.90;;;;;;4977078;28;20574;-72
2023/10/15 08:02:37;;;;;;;;;;;9.00;99.90;;;;;;4994131;28;20032;-72
2023/10/15 08:05:04;;;;;;;4.10;1.50;;;9.00;99.90;;;;;;4994210;28;19995;-72
2023/10/15 08:07:29;;;;;;;4.15;1.52;;;9.10;99.90;;;;;;4993256;28;20019;-72
2023/10/15 08:09:55;;;;;;;6.10;2.58;;;9.10;99.90;;;;;;4976387;28;20475;-72
2023/10/15 08:12:21;;;;;;;4.47;2.22;;;9.20;99.90;;;;;;4993112;28;20045;-72
2023/10/15 08:14:47;;;;;;;5.25;1.73;;;9.20;99.90;;;;;;4994308;28;20034;-72
2023/10/15 08:17:16;;;;;;;4.13;1.60;;;9.20;99.90;;;;;;4976796;28;20053;-72
2023/10/15 08:19:41;;;;;;;3.78;1.50;;;9.20;99.90;;;;;;4993210;28;20041;-72
2023/10/15 08:22:08;;;;;;;3.80;1.70;;;9.20;99.90;;;;;;4994249;28;20022;-73
2023/10/15 08:24:38;;;;;;;5.00;1.80;;;9.30;99.90;;;;;;4992986;28;20018;-72
2023/10/15 08:27:05;;;;;;;5.72;1.75;;;9.30;99.90;;;;;;4993819;28;20026;-72
2023/10/15 08:29:30;;;;;;;4.97;1.98;;;9.30;99.90;;;;;;4975856;28;20069;-72
2023/10/15 08:31:56;;;;;;;5.72;1.80;;;9.30;99.90;;;;;;4994039;28;20447;-72
2023/10/15 08:34:23;;;;;;;2.75;1.50;;;9.30;99.90;;;;;;4993621;28;20038;-72
2023/10/15 08:36:49;;;;;;;4.32;1.55;;;9.30;99.90;;;;;;4993308;28;20034;-72
2023/10/15 08:39:15;;;;;;;3.35;1.40;;;9.30;99.90;;;;;;4993777;28;20027;-73
2023/10/15 08:41:44;;;;;;;4.55;1.63;;;9.30;99.90;;;;;;4995466;28;20113;-73
2023/10/15 08:44:10;;;;;;;4.43;1.48;;;9.40;99.90;;;;;;4994680;28;20026;-72
2023/10/15 08:46:39;;;;;;;3.67;1.45;;;9.40;99.90;;;;;;4993792;28;20387;-72
2023/10/15 08:49:08;;;;;;;2.75;1.10;;;9.40;99.90;;;;;;4994279;28;20467;-73
2023/10/15 08:51:37;;;;;;;3.25;1.10;;;9.40;99.90;;;;;;4975810;28;20043;-72
2023/10/15 08:54:05;;;;;;;3.97;1.55;;;9.50;99.90;;;;;;4995932;28;20034;-73
2023/10/15 08:56:32;;;;;;;2.97;1.30;;;9.60;99.90;;;;;;4996926;28;20026;-73
2023/10/15 08:58:59;;;;;;;4.30;1.65;;;9.60;99.90;;;;;;4997288;28;20033;-73
2023/10/15 09:01:25;;;;;;;4.80;1.65;;;9.60;99.90;;;;;;4997320;28;20105;-72
2023/10/15 09:03:52;;;;;;;5.15;2.03;;;9.70;99.90;;;;;;4996983;28;20106;-73
2023/10/15 09:06:21;;;;;;;4.55;1.67;;;9.70;99.90;;;;;;4996576;28;20085;-73
2023/10/15 09:08:47;;;;;;;3.97;1.23;;;9.70;99.90;;;;;;4996794;28;20461;-73
2023/10/15 09:11:13;;;;;;;5.05;1.88;;;9.70;99.90;;;;;;4978995;28;20118;-73
2023/10/15 09:13:39;;;;;;;4.95;1.95;;;9.80;99.90;;;;;;4979236;28;20033;-73
2023/10/15 09:16:06;;;;;;;5.07;1.90;;;9.90;99.90;;;;;;4996752;28;20035;-73
2023/10/15 09:18:35;;;;;;;6.65;1.90;;;10.00;99.90;;;;;;4996382;28;20113;-74
2023/10/15 09:21:04;;;;;;;7.22;2.13;;;10.10;99.90;;;;;;4996205;28;20077;-73
2023/10/15 09:23:36;;;;;;;2.63;1.48;;;10.20;99.90;;;;;;4995937;28;20379;-73
2023/10/15 09:26:04;;;;;;;4.18;1.58;;;10.30;99.90;;;;;;4978106;28;20034;-73
2023/10/15 09:28:30;;;;;;;3.13;1.15;;;10.40;99.90;;;;;;4996018;28;20152;-73
2023/10/15 09:31:10;;;;;;;2.00;1.10;;;10.50;99.90;;;;;;4995058;28;20023;-72
2023/10/15 09:33:37;;;;;;;2.63;0.82;;;10.50;99.90;;;;;;4995965;28;20033;-73
2023/10/15 09:36:05;;;;;;;2.95;1.00;;;10.60;99.90;;;;;;4995953;28;20026;-73
2023/10/15 09:38:35;;;;;;;2.63;0.77;;;10.60;99.90;;;;;;4995446;28;20034;-73
2023/10/15 09:41:05;;;;;;;3.80;1.73;;;10.70;99.90;;;;;;4996057;28;20030;-73
2023/10/15 09:43:31;;;;;;;5.88;1.80;;;10.80;99.90;;;;;;4978971;28;20026;-73
2023/10/15 09:46:00;;;;;;;3.78;1.10;;;10.90;99.90;;;;;;4962622;28;20048;-73
2023/10/15 09:48:26;;;;;;;2.55;0.68;;;10.90;99.90;;;;;;4995864;28;20434;-74
2023/10/15 09:50:59;;;;;;;4.65;1.10;;;10.90;99.90;;;;;;4978478;28;20506;-72
2023/10/15 09:53:33;;;;;;;3.38;1.08;;;10.90;99.90;;;;;;4995802;28;20034;-73
2023/10/15 09:56:07;;;;;;;4.07;1.23;;;10.80;99.90;;;;;;4995335;28;20023;-72
2023/10/15 09:58:33;;;;;;;3.95;1.20;;;10.70;99.90;;;;;;4995880;28;20109;-72
2023/10/15 10:01:17;;;;;;;4.47;1.30;;;10.70;99.90;;;;;;4994533;28;20566;-72
2023/10/15 10:03:48;;;;;;;3.08;1.08;;;10.70;99.90;;;;;;4994735;28;20031;-73
2023/10/15 10:06:17;;;;;;;3.88;1.17;;;10.60;99.90;;;;;;4995609;28;20475;-73
2023/10/15 10:09:30;;;;;;;4.93;1.50;;;10.70;99.90;;;;;;4996080;28;20026;-73
2023/10/15 10:12:33;;;;;;;5.63;1.55;;;10.80;99.90;;;;;;4965572;28;20391;-73
2023/10/15 10:15:22;;;;;;;3.70;1.30;;;10.90;99.90;;;;;;4996243;28;20018;-73
2023/10/15 10:17:50;;;;;;;3.35;1.08;;;11.20;99.90;;;;;;4995474;28;20026;-73
2023/10/15 10:20:19;;;;;;;3.50;1.00;;;11.30;99.90;;;;;;4995452;28;20023;-73
2023/10/15 10:22:59;;;;;;;4.18;1.38;;;11.30;99.90;;;;;;4995384;28;20029;-72
2023/10/15 10:25:39;;;;;;;2.90;1.10;;;11.40;99.90;;;;;;4995246;28;20026;-73
2023/10/15 10:28:09;;;;;;;2.53;0.57;;;11.40;99.90;;;;;;4995814;28;20022;-73
2023/10/15 10:30:38;;;;;;;2.38;0.65;;;11.60;99.90;;;;;;4995380;28;20653;-72
2023/10/15 10:33:04;;;;;;;1.63;0.63;;;11.60;99.90;;;;;;4977924;28;20099;-72
2023/10/15 10:35:43;;;;;;;3.03;0.60;;;11.80;99.90;;;;;;4994971;28;20022;-72
2023/10/15 10:38:12;;;;;;;1.73;0.60;;;11.90;99.90;;;;;;4995546;28;20032;-73
2023/10/15 10:40:52;;;;;;;1.23;0.52;;;11.90;99.90;;;;;;4977631;28;20443;-73
2023/10/15 10:43:23;;;;;;;6.20;0.60;;;11.90;99.90;;;;;;4994849;28;20023;-73
2023/10/15 10:45:54;;;;;;;1.48;0.45;;;11.90;99.90;;;;;;4994930;28;20085;-73
2023/10/15 10:48:25;;;;;;;0.88;0.40;;;11.80;99.90;;;;;;4994821;28;20479;-73
2023/10/15 10:51:15;;;;;;;1.25;0.50;;;11.80;99.90;;;;;;4994781;28;20034;-72
2023/10/15 10:53:56;;;;;;;1.92;0.73;;;11.70;99.90;;;;;;4994864;28;20502;-73
2023/10/15 10:56:22;;;;;;;2.58;0.90;;;11.60;99.90;;;;;;4994191;28;20165;-73
2023/10/15 10:58:51;;;;;;;2.53;0.70;;;11.60;99.90;;;;;;4994435;28;20395;-72
2023/10/15 11:01:17;;;;;;;2.97;0.80;;;11.50;99.90;;;;;;4977047;28;20502;-73
2023/10/15 11:03:44;;;;;;;2.03;0.57;;;11.50;99.90;;;;;;4994428;28;20026;-72
2023/10/15 11:06:10;;;;;;;1.63;0.70;;;11.50;99.90;;;;;;4976877;28;20549;-72
2023/10/15 11:08:35;;;;;;;1.85;0.60;;;11.50;99.90;;;;;;4985498;28;20026;-72
2023/10/15 11:11:02;;;;;;;2.20;0.50;;;11.40;99.90;;;;;;4975964;28;20084;-72
2023/10/15 11:13:28;;;;;;;3.47;0.60;;;11.40;99.90;;;;;;4994074;28;20108;-72
2023/10/15 11:15:54;;;;;;;4.57;1.25;;;11.40;99.90;;;;;;4992957;28;20065;-72
2023/10/15 11:18:23;;;;;;;1.55;0.60;;;11.50;99.90;;;;;;4994238;28;20061;-72
2023/10/15 11:20:52;;;;;;;1.50;0.77;;;11.50;99.90;;;;;;4992282;28;20391;-72
2023/10/15 11:23:18;;;;;;;4.13;0.90;;;11.60;99.90;;;;;;4992812;28;20030;-72
2023/10/15 11:25:45;;;;;;;2.40;1.10;;;11.60;99.90;;;;;;4993502;28;20113;-72
2023/10/15 11:28:11;;;;;;;2.17;0.70;;;11.70;99.90;;;;;;4959367;28;20030;-72
2023/10/15 11:30:41;;;;;;;2.55;0.80;;;11.70;99.90;;;;;;4993678;28;20101;-72
2023/10/15 11:33:09;;;;;;;2.28;0.60;;;11.70;99.90;;;;;;4993268;28;20035;-72
2023/10/15 11:35:36;;;;;;;3.55;0.68;;;11.70;99.90;;;;;;4960418;28;20038;-72
2023/10/15 11:38:08;;;;;;;1.55;0.65;;;11.80;99.90;;;;;;4993325;28;20574;-72
2023/10/15 11:40:38;;;;;;;3.55;0.93;;;11.70;99.90;;;;;;4975911;28;20042;-72
2023/10/15 11:43:25;;;;;;;2.25;0.75;;;11.70;99.90;;;;;;4993258;28;20027;-72
2023/10/15 11:45:56;;;;;;;2.60;0.88;;;11.60;99.90;;;;;;4976207;28;20026;-72
2023/10/15 11:48:21;;;;;;;2.45;0.73;;;11.60;99.90;;;;;;4993203;28;20031;-72
2023/10/15 11:50:48;;;;;;;2.72;0.85;;;11.60;99.90;;;;;;4975978;28;20450;-72
2023/10/15 11:53:20;;;;;;;3.03;0.60;;;11.70;99.90;;;;;;4975561;28;20054;-72
2023/10/15 11:55:52;;;;;;;1.50;0.57;;;11.70;99.60;;;;;;4993296;28;20026;-72
2023/10/15 11:58:27;;;;;;;3.22;0.70;;;11.70;99.90;;;;;;4993014;28;20037;-72
2023/10/15 12:00:53;;;;;;;1.40;0.75;;;11.70;99.90;;;;;;4993410;28;20027;-72
2023/10/15 12:03:22;;;;;;;3.13;0.70;;;11.70;99.90;;;;;;4992922;28;20023;-72
2023/10/15 12:05:49;;;;;;;2.75;0.70;;;11.60;99.90;;;;;;4987198;28;20026;-71
2023/10/15 12:08:16;;;;;;;2.20;0.60;;;11.70;99.90;;;;;;4992966;28;20372;-72
2023/10/15 12:10:43;;;;;;;5.25;1.15;;;11.60;99.90;;;;;;4993173;28;20042;-72
2023/10/15 12:13:15;;;;;;;2.22;0.70;;;11.50;99.90;;;;;;4992949;28;20563;-72
2023/10/15 12:15:41;;;;;;;5.90;0.85;;;11.40;99.90;;;;;;4987370;28;20085;-71
2023/10/15 12:18:07;;;;;;;2.42;0.80;;;11.40;99.90;;;;;;4993072;28;20041;-71
2023/10/15 12:20:33;;;;;;;1.70;0.60;;;11.30;99.90;;;;;;4993018;28;20105;-72
2023/10/15 12:22:58;;;;;;;2.88;0.70;;;11.30;99.90;;;;;;4974653;28;20026;-71
2023/10/15 12:25:24;;;;;;;3.47;0.90;;;11.20;99.90;;;;;;4992727;28;20081;-71
2023/10/15 12:27:50;;;;;;;4.57;0.70;;;11.10;99.90;;;;;;4995317;28;20031;-71
2023/10/15 12:30:27;;;;;;;1.70;0.50;;;11.00;99.90;;;;;;4997237;28;20025;-71
2023/10/15 12:32:58;;;;;;;2.45;0.88;;;10.80;99.90;;;;;;4996682;28;20025;-71
2023/10/15 12:35:24;;;;;;;3.80;0.73;;;10.80;99.90;;;;;;4979398;28;20022;-71
2023/10/15 12:37:58;;;;;;;2.28;0.63;;;10.60;99.90;;;;;;4997161;28;20491;-71
2023/10/15 12:40:33;;;;;;;2.30;0.70;;;10.50;99.90;;;;;;4997152;28;20022;-71
2023/10/15 12:43:08;;;;;;;3.50;0.60;;;10.40;99.90;;;;;;4997194;28;20475;-71
2023/10/15 12:45:34;;;;;;;1.85;0.43;;;10.30;99.90;;;;;;4997344;28;20463;-71
2023/10/15 12:48:01;;;;;;;1.80;0.60;;;10.20;99.90;;;;;;4979667;28;20026;-71
2023/10/15 12:50:28;;;;;;;1.92;0.47;;;10.10;99.90;;;;;;4997281;28;20046;-71
2023/10/15 12:52:56;;;;;;;0.88;0.30;;;9.90;99.90;;;;;;4996892;28;20037;-71
2023/10/15 12:55:25;;;;;;;1.85;0.50;;;9.70;99.90;;;;;;4980065;28;20022;-71
2023/10/15 12:57:51;;;;;;;1.15;0.43;;;9.60;99.90;;;;;;4997355;28;20488;-71
2023/10/15 13:00:18;;;;;;;2.20;0.40;;;9.40;99.90;;;;;;4996962;28;20023;-71
2023/10/15 13:02:51;;;;;;;0.98;0.32;;;9.40;99.90;;;;;;4979775;28;20019;-71
2023/10/15 13:05:18;;;;;;;0.85;0.40;;;9.30;99.90;;;;;;4997401;28;20027;-71
2023/10/15 13:07:45;;;;;;;0.70;0.35;;;9.20;99.90;;;;;;4997301;28;20029;-71
2023/10/15 13:10:13;;;;;;;0.95;0.22;;;9.10;99.90;;;;;;4997373;28;20466;-71
2023/10/15 13:12:40;;;;;;;2.80;0.60;;;9.10;99.90;;;;;;4997678;28;20031;-71
2023/10/15 13:15:07;;;;;;;0.82;0.40;;;9.00;99.90;;;;;;4996240;28;20038;-73